Terminal Aerodrome Forecast
Issued by NWS Twin Cities, MN

Home | Current Version | Previous Version | Graphics & Text | Print | Product List | Glossary On
Versions: 1 2 3 4 5 6 7 8 9 10 11 12 13 14 15 16 17 18 19
000
FTUS43 KMPX 010800 AAA
TAFEAU
TAF AMD
KEAU 010852Z 0109/0206 22006KT 6SM -SHRA SCT010 BKN050
      TEMPO 0109/0113 3SM -SHRA BKN010
     FM011300 25006KT P6SM VCSH BKN020
     FM011600 29011KT P6SM SCT020 BKN050
     FM020000 27006KT P6SM SCT200=

USA.gov is the U.S. government's official web portal to all federal, state and local government web resources and services.